sensor_id;sensor_type;location;lat;lon;timestamp;pressure;altitude;pressure_sealevel;temperature;humidity
40692;BME280;26377;53.344;14.886;2022-12-20T00:01:30;101511.75;;;4.31;77.71
40692;BME280;26377;53.344;14.886;2022-12-20T00:03:59;101512.19;;;4.32;77.72
40692;BME280;26377;53.344;14.886;2022-12-20T00:06:33;101525.74;;;4.33;77.74
40692;BME280;26377;53.344;14.886;2022-12-20T00:09:04;101524.84;;;4.34;77.74
40692;BME280;26377;53.344;14.886;2022-12-20T00:11:32;101537.08;;;4.35;77.73
40692;BME280;26377;53.344;14.886;2022-12-20T00:14:00;101534.44;;;4.36;77.73
40692;BME280;26377;53.344;14.886;2022-12-20T00:16:28;101532.23;;;4.37;77.69
40692;BME280;26377;53.344;14.886;2022-12-20T00:18:58;101530.06;;;4.37;77.74
40692;BME280;26377;53.344;14.886;2022-12-20T00:21:28;101528.28;;;4.37;77.72
40692;BME280;26377;53.344;14.886;2022-12-20T00:23:57;101519.95;;;4.39;77.72
40692;BME280;26377;53.344;14.886;2022-12-20T00:26:27;101527.38;;;4.40;77.71
40692;BME280;26377;53.344;14.886;2022-12-20T00:28:55;101528.69;;;4.40;77.69
40692;BME280;26377;53.344;14.886;2022-12-20T00:31:25;101521.22;;;4.41;77.56
40692;BME280;26377;53.344;14.886;2022-12-20T00:33:54;101511.17;;;4.40;77.64
40692;BME280;26377;53.344;14.886;2022-12-20T00:36:25;101513.34;;;4.41;77.61
40692;BME280;26377;53.344;14.886;2022-12-20T00:38:55;101510.30;;;4.40;77.61
40692;BME280;26377;53.344;14.886;2022-12-20T00:41:26;101498.95;;;4.38;77.56
40692;BME280;26377;53.344;14.886;2022-12-20T00:43:55;101494.61;;;4.37;77.55
40692;BME280;26377;53.344;14.886;2022-12-20T00:46:23;101484.09;;;4.37;77.58
40692;BME280;26377;53.344;14.886;2022-12-20T00:48:53;101475.75;;;4.37;77.56
40692;BME280;26377;53.344;14.886;2022-12-20T00:51:23;101483.20;;;4.38;77.53
40692;BME280;26377;53.344;14.886;2022-12-20T00:53:52;101468.77;;;4.36;77.54
40692;BME280;26377;53.344;14.886;2022-12-20T00:56:21;101477.96;;;4.36;77.48
40692;BME280;26377;53.344;14.886;2022-12-20T00:58:48;101484.96;;;4.36;77.50
40692;BME280;26377;53.344;14.886;2022-12-20T01:01:21;101484.56;;;4.33;77.48
40692;BME280;26377;53.344;14.886;2022-12-20T01:03:51;101482.38;;;4.34;77.48
40692;BME280;26377;53.344;14.886;2022-12-20T01:06:19;101484.55;;;4.35;77.49
40692;BME280;26377;53.344;14.886;2022-12-20T01:08:48;101489.38;;;4.34;77.47
40692;BME280;26377;53.344;14.886;2022-12-20T01:11:22;101492.84;;;4.36;77.48
40692;BME280;26377;53.344;14.886;2022-12-20T01:13:58;101502.92;;;4.36;77.46
40692;BME280;26377;53.344;14.886;2022-12-20T01:16:34;101513.84;;;4.37;77.51
40692;BME280;26377;53.344;14.886;2022-12-20T01:19:00;101516.45;;;4.39;77.55
40692;BME280;26377;53.344;14.886;2022-12-20T01:21:28;101518.17;;;4.40;77.46
40692;BME280;26377;53.344;14.886;2022-12-20T01:23:57;101523.00;;;4.40;77.46
40692;BME280;26377;53.344;14.886;2022-12-20T01:26:26;101523.90;;;4.39;77.41
40692;BME280;26377;53.344;14.886;2022-12-20T01:28:58;101536.13;;;4.40;77.39
40692;BME280;26377;53.344;14.886;2022-12-20T01:31:25;101527.85;;;4.38;77.37
40692;BME280;26377;53.344;14.886;2022-12-20T01:33:53;101531.80;;;4.38;77.30
40692;BME280;26377;53.344;14.886;2022-12-20T01:36:23;101531.38;;;4.37;77.28
40692;BME280;26377;53.344;14.886;2022-12-20T01:39:00;101519.56;;;4.37;77.30
40692;BME280;26377;53.344;14.886;2022-12-20T01:41:35;101512.52;;;4.37;77.24
40692;BME280;26377;53.344;14.886;2022-12-20T01:44:50;101516.93;;;4.37;77.19
40692;BME280;26377;53.344;14.886;2022-12-20T01:46:47;101509.91;;;4.36;77.16
40692;BME280;26377;53.344;14.886;2022-12-20T01:51:56;101516.98;;;4.32;77.10
40692;BME280;26377;53.344;14.886;2022-12-20T01:54:37;101518.30;;;4.32;77.08
40692;BME280;26377;53.344;14.886;2022-12-20T01:57:06;101506.95;;;4.30;77.09
40692;BME280;26377;53.344;14.886;2022-12-20T01:59:37;101499.52;;;4.30;77.03
40692;BME280;26377;53.344;14.886;2022-12-20T02:02:10;101498.23;;;4.27;76.97
40692;BME280;26377;53.344;14.886;2022-12-20T02:04:38;101485.15;;;4.25;77.01
40692;BME280;26377;53.344;14.886;2022-12-20T02:07:07;101483.85;;;4.24;77.00
40692;BME280;26377;53.344;14.886;2022-12-20T02:09:36;101487.79;;;4.24;77.04
40692;BME280;26377;53.344;14.886;2022-12-20T02:12:21;101481.16;;;4.27;77.05
40692;BME280;26377;53.344;14.886;2022-12-20T02:18:15;101492.55;;;4.27;77.03
40692;BME280;26377;53.344;14.886;2022-12-20T02:23:53;101482.02;;;4.29;77.11
40692;BME280;26377;53.344;14.886;2022-12-20T02:27:08;101484.63;;;4.30;77.13
40692;BME280;26377;53.344;14.886;2022-12-20T02:30:05;101475.44;;;4.30;77.08
40692;BME280;26377;53.344;14.886;2022-12-20T02:33:02;101469.34;;;4.27;77.03
40692;BME280;26377;53.344;14.886;2022-12-20T02:35:33;101473.75;;;4.26;77.05
40692;BME280;26377;53.344;14.886;2022-12-20T02:38:23;101471.14;;;4.25;77.02
40692;BME280;26377;53.344;14.886;2022-12-20T02:40:43;101473.33;;;4.25;77.00
40692;BME280;26377;53.344;14.886;2022-12-20T02:43:11;101475.08;;;4.25;77.02
40692;BME280;26377;53.344;14.886;2022-12-20T02:45:46;101485.58;;;4.25;77.00
40692;BME280;26377;53.344;14.886;2022-12-20T02:48:14;101490.44;;;4.22;76.95
40692;BME280;26377;53.344;14.886;2022-12-20T02:50:47;101493.94;;;4.23;76.97
40692;BME280;26377;53.344;14.886;2022-12-20T02:53:17;101485.61;;;4.22;76.92
40692;BME280;26377;53.344;14.886;2022-12-20T02:56:10;101484.75;;;4.23;76.94
40692;BME280;26377;53.344;14.886;2022-12-20T02:58:40;101483.85;;;4.24;76.97
40692;BME280;26377;53.344;14.886;2022-12-20T03:01:25;101478.14;;;4.24;77.03
40692;BME280;26377;53.344;14.886;2022-12-20T03:03:54;101487.29;;;4.27;77.05
40692;BME280;26377;53.344;14.886;2022-12-20T03:06:23;101481.13;;;4.30;77.07
40692;BME280;26377;53.344;14.886;2022-12-20T03:08:51;101488.09;;;4.32;77.03
40692;BME280;26377;53.344;14.886;2022-12-20T03:11:18;101493.73;;;4.35;77.04
40692;BME280;26377;53.344;14.886;2022-12-20T03:13:46;101488.90;;;4.36;77.00
40692;BME280;26377;53.344;14.886;2022-12-20T03:16:14;101494.61;;;4.37;76.93
40692;BME280;26377;53.344;14.886;2022-12-20T03:18:41;101500.70;;;4.37;76.87
40692;BME280;26377;53.344;14.886;2022-12-20T03:21:11;101492.39;;;4.38;76.91
40692;BME280;26377;53.344;14.886;2022-12-20T03:23:38;101488.86;;;4.39;76.82
40692;BME280;26377;53.344;14.886;2022-12-20T03:26:05;101486.25;;;4.37;76.83
40692;BME280;26377;53.344;14.886;2022-12-20T03:28:35;101479.27;;;4.36;76.82
40692;BME280;26377;53.344;14.886;2022-12-20T03:31:02;101484.09;;;4.37;76.80
40692;BME280;26377;53.344;14.886;2022-12-20T03:33:30;101470.48;;;4.39;76.86
40692;BME280;26377;53.344;14.886;2022-12-20T03:35:59;101471.30;;;4.41;76.86
40692;BME280;26377;53.344;14.886;2022-12-20T03:38:26;101476.56;;;4.41;76.84
40692;BME280;26377;53.344;14.886;2022-12-20T03:40:53;101483.58;;;4.42;76.81
40692;BME280;26377;53.344;14.886;2022-12-20T03:43:20;101476.12;;;4.41;76.75
40692;BME280;26377;53.344;14.886;2022-12-20T03:45:48;101470.42;;;4.43;76.77
40692;BME280;26377;53.344;14.886;2022-12-20T03:48:16;101469.54;;;4.43;76.75
40692;BME280;26377;53.344;14.886;2022-12-20T03:50:43;101469.11;;;4.43;76.77
40692;BME280;26377;53.344;14.886;2022-12-20T03:53:10;101465.58;;;4.44;76.77
40692;BME280;26377;53.344;14.886;2022-12-20T03:55:37;101459.43;;;4.45;76.74
40692;BME280;26377;53.344;14.886;2022-12-20T03:58:05;101459.41;;;4.47;76.76
40692;BME280;26377;53.344;14.886;2022-12-20T04:00:34;101446.69;;;4.48;76.73
40692;BME280;26377;53.344;14.886;2022-12-20T04:03:04;101451.51;;;4.48;76.69
40692;BME280;26377;53.344;14.886;2022-12-20T04:05:32;101448.41;;;4.49;76.72
40692;BME280;26377;53.344;14.886;2022-12-20T04:08:00;101447.97;;;4.51;76.71
40692;BME280;26377;53.344;14.886;2022-12-20T04:10:27;101441.81;;;4.52;76.73
40692;BME280;26377;53.344;14.886;2022-12-20T04:12:54;101444.83;;;4.54;76.75
40692;BME280;26377;53.344;14.886;2022-12-20T04:15:22;101447.02;;;4.55;76.70
40692;BME280;26377;53.344;14.886;2022-12-20T04:17:50;101441.30;;;4.55;76.68
40692;BME280;26377;53.344;14.886;2022-12-20T04:20:18;101443.50;;;4.56;76.66
40692;BME280;26377;53.344;14.886;2022-12-20T04:22:48;101441.28;;;4.57;76.65
40692;BME280;26377;53.344;14.886;2022-12-20T04:25:18;101438.22;;;4.57;76.65
40692;BME280;26377;53.344;14.886;2022-12-20T04:27:46;101443.01;;;4.58;76.68
40692;BME280;26377;53.344;14.886;2022-12-20T04:30:14;101450.44;;;4.60;76.70
40692;BME280;26377;53.344;14.886;2022-12-20T04:32:41;101450.36;;;4.63;76.71
40692;BME280;26377;53.344;14.886;2022-12-20T04:35:10;101446.84;;;4.64;76.71
40692;BME280;26377;53.344;14.886;2022-12-20T04:37:39;101453.39;;;4.65;76.70
40692;BME280;26377;53.344;14.886;2022-12-20T04:40:08;101452.52;;;4.66;76.65
40692;BME280;26377;53.344;14.886;2022-12-20T04:42:41;101456.89;;;4.66;76.60
40692;BME280;26377;53.344;14.886;2022-12-20T04:45:10;101455.15;;;4.66;76.62
40692;BME280;26377;53.344;14.886;2022-12-20T04:47:39;101452.05;;;4.67;76.59
40692;BME280;26377;53.344;14.886;2022-12-20T04:50:07;101447.66;;;4.69;76.58
40692;BME280;26377;53.344;14.886;2022-12-20T04:52:36;101443.72;;;4.69;76.55
40692;BME280;26377;53.344;14.886;2022-12-20T04:55:21;101442.34;;;4.70;76.57
40692;BME280;26377;53.344;14.886;2022-12-20T04:57:49;101448.05;;;4.71;76.58
40692;BME280;26377;53.344;14.886;2022-12-20T05:00:16;101447.13;;;4.74;76.62
40692;BME280;26377;53.344;14.886;2022-12-20T05:02:45;101443.59;;;4.75;76.60
40692;BME280;26377;53.344;14.886;2022-12-20T05:05:14;101435.22;;;4.77;76.61
40692;BME280;26377;53.344;14.886;2022-12-20T05:07:45;101436.52;;;4.78;76.55
40692;BME280;26377;53.344;14.886;2022-12-20T05:10:12;101436.08;;;4.79;76.54
40692;BME280;26377;53.344;14.886;2022-12-20T05:12:39;101439.55;;;4.79;76.52
40692;BME280;26377;53.344;14.886;2022-12-20T05:15:09;101444.79;;;4.81;76.52
40692;BME280;26377;53.344;14.886;2022-12-20T05:17:39;101442.16;;;4.81;76.49
40692;BME280;26377;53.344;14.886;2022-12-20T05:20:07;101444.36;;;4.81;76.50
40692;BME280;26377;53.344;14.886;2022-12-20T05:22:35;101446.50;;;4.83;76.54
40692;BME280;26377;53.344;14.886;2022-12-20T05:25:21;101442.12;;;4.84;76.48
40692;BME280;26377;53.344;14.886;2022-12-20T05:28:07;101437.25;;;4.86;76.56
40692;BME280;26377;53.344;14.886;2022-12-20T05:30:36;101432.84;;;4.87;76.53
40692;BME280;26377;53.344;14.886;2022-12-20T05:33:05;101426.72;;;4.88;76.49
40692;BME280;26377;53.344;14.886;2022-12-20T05:35:33;101424.06;;;4.89;76.50
40692;BME280;26377;53.344;14.886;2022-12-20T05:38:06;101419.66;;;4.90;76.46
40692;BME280;26377;53.344;14.886;2022-12-20T05:40:35;101431.89;;;4.91;76.47
40692;BME280;26377;53.344;14.886;2022-12-20T05:43:03;101427.50;;;4.93;76.53
40692;BME280;26377;53.344;14.886;2022-12-20T05:45:33;101430.53;;;4.94;76.48
40692;BME280;26377;53.344;14.886;2022-12-20T05:48:02;101436.62;;;4.96;76.49
40692;BME280;26377;53.344;14.886;2022-12-20T05:50:30;101439.72;;;4.95;76.45
40692;BME280;26377;53.344;14.886;2022-12-20T05:53:17;101434.38;;;4.98;76.46
40692;BME280;26377;53.344;14.886;2022-12-20T05:55:48;101439.20;;;4.99;76.43
40692;BME280;26377;53.344;14.886;2022-12-20T05:58:17;101440.49;;;5.00;76.47
40692;BME280;26377;53.344;14.886;2022-12-20T06:00:49;101437.84;;;5.02;76.44
40692;BME280;26377;53.344;14.886;2022-12-20T06:03:16;101429.95;;;5.02;76.37
40692;BME280;26377;53.344;14.886;2022-12-20T06:05:44;101432.56;;;5.03;76.34
40692;BME280;26377;53.344;14.886;2022-12-20T06:08:14;101444.41;;;5.02;76.34
40692;BME280;26377;53.344;14.886;2022-12-20T06:10:42;101444.00;;;5.01;76.28
40692;BME280;26377;53.344;14.886;2022-12-20T06:13:09;101448.38;;;5.00;76.25
40692;BME280;26377;53.344;14.886;2022-12-20T06:15:37;101443.13;;;5.00;76.27
40692;BME280;26377;53.344;14.886;2022-12-20T06:18:05;101443.13;;;5.00;76.27
40692;BME280;26377;53.344;14.886;2022-12-20T06:20:34;101448.77;;;5.03;76.31
40692;BME280;26377;53.344;14.886;2022-12-20T06:23:04;101449.66;;;5.03;76.25
40692;BME280;26377;53.344;14.886;2022-12-20T06:25:33;101451.81;;;5.04;76.30
40692;BME280;26377;53.344;14.886;2022-12-20T06:28:02;101458.78;;;5.06;76.28
40692;BME280;26377;53.344;14.886;2022-12-20T06:30:30;101453.08;;;5.07;76.25
40692;BME280;26377;53.344;14.886;2022-12-20T06:33:09;101456.12;;;5.08;76.27
40692;BME280;26377;53.344;14.886;2022-12-20T06:35:36;101448.23;;;5.08;76.22
40692;BME280;26377;53.344;14.886;2022-12-20T06:38:04;101447.83;;;5.07;76.16
40692;BME280;26377;53.344;14.886;2022-12-20T06:40:33;101450.89;;;5.06;76.11
40692;BME280;26377;53.344;14.886;2022-12-20T06:43:01;101446.51;;;5.07;76.10
40692;BME280;26377;53.344;14.886;2022-12-20T06:45:28;101444.81;;;5.04;76.02
40692;BME280;26377;53.344;14.886;2022-12-20T06:47:56;101448.77;;;5.03;75.98
40692;BME280;26377;53.344;14.886;2022-12-20T06:50:25;101454.05;;;5.01;75.95
40692;BME280;26377;53.344;14.886;2022-12-20T06:52:53;101454.55;;;4.99;75.92
40692;BME280;26377;53.344;14.886;2022-12-20T06:55:22;101451.47;;;4.98;75.96
40692;BME280;26377;53.344;14.886;2022-12-20T06:57:50;101435.75;;;4.97;75.92
40692;BME280;26377;53.344;14.886;2022-12-20T07:00:19;101445.82;;;4.96;75.89
40692;BME280;26377;53.344;14.886;2022-12-20T07:02:48;101443.69;;;4.94;75.88
40692;BME280;26377;53.344;14.886;2022-12-20T07:05:15;101448.94;;;4.94;75.89
40692;BME280;26377;53.344;14.886;2022-12-20T07:07:43;101445.41;;;4.95;75.98
40692;BME280;26377;53.344;14.886;2022-12-20T07:10:10;101440.13;;;4.96;75.94
40692;BME280;26377;53.344;14.886;2022-12-20T07:12:39;101435.75;;;4.97;75.96
40692;BME280;26377;53.344;14.886;2022-12-20T07:15:08;101429.13;;;4.98;75.93
40692;BME280;26377;53.344;14.886;2022-12-20T07:17:37;101437.06;;;4.97;75.87
40692;BME280;26377;53.344;14.886;2022-12-20T07:20:06;101437.91;;;4.97;75.83
40692;BME280;26377;53.344;14.886;2022-12-20T07:22:34;101435.30;;;4.96;75.79
40692;BME280;26377;53.344;14.886;2022-12-20T07:25:02;101437.11;;;4.94;75.78
40692;BME280;26377;53.344;14.886;2022-12-20T07:27:30;101449.84;;;4.93;75.81
40692;BME280;26377;53.344;14.886;2022-12-20T07:29:57;101462.50;;;4.95;75.86
40692;BME280;26377;53.344;14.886;2022-12-20T07:32:24;101453.27;;;4.96;75.87
40692;BME280;26377;53.344;14.886;2022-12-20T07:34:51;101455.47;;;4.97;75.84
40692;BME280;26377;53.344;14.886;2022-12-20T07:37:19;101457.59;;;5.00;75.82
40692;BME280;26377;53.344;14.886;2022-12-20T07:39:46;101461.53;;;5.00;75.85
40692;BME280;26377;53.344;14.886;2022-12-20T07:42:13;101465.45;;;5.02;75.84
40692;BME280;26377;53.344;14.886;2022-12-20T07:44:45;101463.65;;;5.04;75.87
40692;BME280;26377;53.344;14.886;2022-12-20T07:47:12;101458.78;;;5.06;75.86
40692;BME280;26377;53.344;14.886;2022-12-20T07:49:39;101457.85;;;5.09;75.84
40692;BME280;26377;53.344;14.886;2022-12-20T07:52:08;101446.43;;;5.10;75.82
40692;BME280;26377;53.344;14.886;2022-12-20T07:54:42;101452.14;;;5.11;75.81
40692;BME280;26377;53.344;14.886;2022-12-20T07:57:21;101444.25;;;5.11;75.79
40692;BME280;26377;53.344;14.886;2022-12-20T07:59:53;101452.95;;;5.13;75.78
40692;BME280;26377;53.344;14.886;2022-12-20T08:02:27;101449.02;;;5.13;75.75
40692;BME280;26377;53.344;14.886;2022-12-20T08:04:55;101441.53;;;5.14;75.81
40692;BME280;26377;53.344;14.886;2022-12-20T08:07:23;101431.45;;;5.15;75.78
40692;BME280;26377;53.344;14.886;2022-12-20T08:09:51;101452.94;;;5.14;75.73
40692;BME280;26377;53.344;14.886;2022-12-20T08:12:19;101434.50;;;5.16;75.74
40692;BME280;26377;53.344;14.886;2022-12-20T08:14:47;101434.94;;;5.15;75.73
40692;BME280;26377;53.344;14.886;2022-12-20T08:17:17;101430.53;;;5.17;75.75
40692;BME280;26377;53.344;14.886;2022-12-20T08:19:44;101421.33;;;5.17;75.75
40692;BME280;26377;53.344;14.886;2022-12-20T08:22:11;101428.29;;;5.20;75.75
40692;BME280;26377;53.344;14.886;2022-12-20T08:24:38;101434.81;;;5.21;75.74
40692;BME280;26377;53.344;14.886;2022-12-20T08:51:56;101473.52;;;5.79;75.51
40692;BME280;26377;53.344;14.886;2022-12-20T08:54:23;101475.39;;;5.74;75.54
40692;BME280;26377;53.344;14.886;2022-12-20T08:56:50;101472.81;;;5.71;75.62
40692;BME280;26377;53.344;14.886;2022-12-20T08:59:17;101478.10;;;5.70;75.67
40692;BME280;26377;53.344;14.886;2022-12-20T09:01:45;101475.53;;;5.68;75.72
40692;BME280;26377;53.344;14.886;2022-12-20T09:04:12;101468.56;;;5.66;75.69
40692;BME280;26377;53.344;14.886;2022-12-20T09:06:40;101468.09;;;5.66;75.69
40692;BME280;26377;53.344;14.886;2022-12-20T09:09:07;101467.25;;;5.66;75.66
40692;BME280;26377;53.344;14.886;2022-12-20T09:11:34;101475.58;;;5.65;75.68
40692;BME280;26377;53.344;14.886;2022-12-20T09:14:01;101473.77;;;5.67;75.68
40692;BME280;26377;53.344;14.886;2022-12-20T09:16:31;101472.84;;;5.70;75.70
40692;BME280;26377;53.344;14.886;2022-12-20T09:19:00;101471.94;;;5.72;75.69
40692;BME280;26377;53.344;14.886;2022-12-20T09:21:28;101469.69;;;5.75;75.71
40692;BME280;26377;53.344;14.886;2022-12-20T09:23:56;101466.95;;;5.79;75.76
40692;BME280;26377;53.344;14.886;2022-12-20T09:26:24;101462.04;;;5.85;75.79
40692;BME280;26377;53.344;14.886;2022-12-20T09:28:52;101469.77;;;5.92;75.80
40692;BME280;26377;53.344;14.886;2022-12-20T09:31:22;101461.28;;;5.99;75.83
40692;BME280;26377;53.344;14.886;2022-12-20T09:33:57;101456.28;;;6.06;75.83
40692;BME280;26377;53.344;14.886;2022-12-20T09:36:27;101454.84;;;6.12;75.78
40692;BME280;26377;53.344;14.886;2022-12-20T09:38:55;101452.91;;;6.18;75.79
40692;BME280;26377;53.344;14.886;2022-12-20T09:41:36;101451.06;;;6.23;75.76
40692;BME280;26377;53.344;14.886;2022-12-20T09:44:15;101443.06;;;6.26;75.72
40692;BME280;26377;53.344;14.886;2022-12-20T09:46:51;101435.50;;;6.30;75.68
40692;BME280;26377;53.344;14.886;2022-12-20T09:49:34;101438.08;;;6.33;75.73
40692;BME280;26377;53.344;14.886;2022-12-20T09:52:23;101435.31;;;6.38;75.71
40692;BME280;26377;53.344;14.886;2022-12-20T09:55:00;101433.02;;;6.42;75.74
40692;BME280;26377;53.344;14.886;2022-12-20T10:00:51;101434.12;;;6.51;75.75
40692;BME280;26377;53.344;14.886;2022-12-20T10:03:21;101431.79;;;6.56;75.75
40692;BME280;26377;53.344;14.886;2022-12-20T10:06:14;101433.08;;;6.58;75.72
40692;BME280;26377;53.344;14.886;2022-12-20T10:08:58;101429.13;;;6.58;75.66
40692;BME280;26377;53.344;14.886;2022-12-20T10:14:48;101421.59;;;6.60;75.70
40692;BME280;26377;53.344;14.886;2022-12-20T10:23:16;101418.48;;;6.61;75.62
40692;BME280;26377;53.344;14.886;2022-12-20T10:25:56;101418.07;;;6.60;75.59
40692;BME280;26377;53.344;14.886;2022-12-20T10:28:26;101414.62;;;6.58;75.61
40692;BME280;26377;53.344;14.886;2022-12-20T10:31:00;101413.71;;;6.59;75.66
40692;BME280;26377;53.344;14.886;2022-12-20T10:33:29;101406.65;;;6.59;75.66
40692;BME280;26377;53.344;14.886;2022-12-20T10:36:37;101398.30;;;6.60;75.68
40692;BME280;26377;53.344;14.886;2022-12-20T10:39:00;101392.99;;;6.61;75.69
40692;BME280;26377;53.344;14.886;2022-12-20T10:44:17;101379.34;;;6.62;75.68
40692;BME280;26377;53.344;14.886;2022-12-20T10:46:57;101379.84;;;6.60;75.69
40692;BME280;26377;53.344;14.886;2022-12-20T10:49:31;101377.65;;;6.59;75.68
40692;BME280;26377;53.344;14.886;2022-12-20T10:54:40;101379.17;;;6.52;75.63
40692;BME280;26377;53.344;14.886;2022-12-20T10:57:20;101369.54;;;6.51;75.69
40692;BME280;26377;53.344;14.886;2022-12-20T10:59:55;101366.50;;;6.50;75.72
40692;BME280;26377;53.344;14.886;2022-12-20T11:02:33;101359.44;;;6.50;75.78
40692;BME280;26377;53.344;14.886;2022-12-20T11:07:57;101343.62;;;6.50;75.86
40692;BME280;26377;53.344;14.886;2022-12-20T11:10:28;101342.27;;;6.52;75.93
40692;BME280;26377;53.344;14.886;2022-12-20T11:12:58;101334.33;;;6.53;75.96
40692;BME280;26377;53.344;14.886;2022-12-20T11:15:32;101358.05;;;6.53;75.96
40692;BME280;26377;53.344;14.886;2022-12-20T11:18:11;101355.01;;;6.52;75.94
40692;BME280;26377;53.344;14.886;2022-12-20T11:20:43;101336.08;;;6.53;76.00
40692;BME280;26377;53.344;14.886;2022-12-20T11:23:31;101336.08;;;6.53;76.05
40692;BME280;26377;53.344;14.886;2022-12-20T11:32:34;101336.72;;;6.62;76.27
40692;BME280;26377;53.344;14.886;2022-12-20T11:41:29;101294.50;;;6.64;76.29
40692;BME280;26377;53.344;14.886;2022-12-20T11:50:03;101278.20;;;6.64;76.45
40692;BME280;26377;53.344;14.886;2022-12-20T11:55:21;101287.80;;;6.67;76.59
40692;BME280;26377;53.344;14.886;2022-12-20T12:00:59;101282.38;;;6.73;76.64
40692;BME280;26377;53.344;14.886;2022-12-20T12:03:36;101282.75;;;6.75;76.62
40692;BME280;26377;53.344;14.886;2022-12-20T12:09:05;101276.56;;;6.76;76.65
40692;BME280;26377;53.344;14.886;2022-12-20T12:11:37;101275.64;;;6.77;76.65
40692;BME280;26377;53.344;14.886;2022-12-20T12:14:14;101260.30;;;6.77;76.66
40692;BME280;26377;53.344;14.886;2022-12-20T12:16:41;101251.51;;;6.76;76.70
40692;BME280;26377;53.344;14.886;2022-12-20T12:19:12;101256.75;;;6.78;76.69
40692;BME280;26377;53.344;14.886;2022-12-20T12:21:49;101253.19;;;6.79;76.74
40692;BME280;26377;53.344;14.886;2022-12-20T12:24:41;101252.64;;;6.82;76.79
40692;BME280;26377;53.344;14.886;2022-12-20T12:27:23;101252.12;;;6.86;76.84
40692;BME280;26377;53.344;14.886;2022-12-20T12:29:53;101244.09;;;6.89;76.87
40692;BME280;26377;53.344;14.886;2022-12-20T12:33:01;101243.58;;;6.92;76.86
40692;BME280;26377;53.344;14.886;2022-12-20T12:38:14;101237.71;;;6.97;76.89
40692;BME280;26377;53.344;14.886;2022-12-20T12:41:03;101230.16;;;7.00;76.93
40692;BME280;26377;53.344;14.886;2022-12-20T12:46:14;101235.28;;;7.04;76.99
40692;BME280;26377;53.344;14.886;2022-12-20T12:48:51;101241.39;;;7.06;76.99
40692;BME280;26377;53.344;14.886;2022-12-20T12:51:37;101235.16;;;7.09;77.00
40692;BME280;26377;53.344;14.886;2022-12-20T12:54:15;101227.64;;;7.10;77.01
40692;BME280;26377;53.344;14.886;2022-12-20T12:56:44;101226.69;;;7.12;77.04
40692;BME280;26377;53.344;14.886;2022-12-20T13:07:42;101237.45;;;7.19;77.05
40692;BME280;26377;53.344;14.886;2022-12-20T13:17:59;101247.16;;;7.19;76.99
40692;BME280;26377;53.344;14.886;2022-12-20T13:20:29;101244.05;;;7.19;76.99
40692;BME280;26377;53.344;14.886;2022-12-20T13:23:12;101248.92;;;7.18;76.96
40692;BME280;26377;53.344;14.886;2022-12-20T13:25:45;101241.88;;;7.19;76.94
40692;BME280;26377;53.344;14.886;2022-12-20T13:33:49;101230.61;;;7.14;76.91
40692;BME280;26377;53.344;14.886;2022-12-20T13:36:36;101223.58;;;7.13;76.87
40692;BME280;26377;53.344;14.886;2022-12-20T13:42:21;101212.27;;;7.09;76.86
40692;BME280;26377;53.344;14.886;2022-12-20T13:44:53;101218.45;;;7.08;76.86
40692;BME280;26377;53.344;14.886;2022-12-20T13:47:44;101217.14;;;7.08;76.88
40692;BME280;26377;53.344;14.886;2022-12-20T13:50:29;101217.66;;;7.06;76.90
40692;BME280;26377;53.344;14.886;2022-12-20T13:52:58;101224.65;;;7.07;76.88
40692;BME280;26377;53.344;14.886;2022-12-20T13:55:37;101212.81;;;7.06;76.85
40692;BME280;26377;53.344;14.886;2022-12-20T13:58:14;101204.95;;;7.04;76.80
40692;BME280;26377;53.344;14.886;2022-12-20T14:00:47;101207.66;;;7.01;76.78
40692;BME280;26377;53.344;14.886;2022-12-20T14:03:20;101201.55;;;7.01;76.77
40692;BME280;26377;53.344;14.886;2022-12-20T14:06:00;101209.05;;;7.00;76.77
40692;BME280;26377;53.344;14.886;2022-12-20T14:08:33;101210.81;;;6.99;76.76
40692;BME280;26377;53.344;14.886;2022-12-20T14:11:11;101220.49;;;6.99;76.76
40692;BME280;26377;53.344;14.886;2022-12-20T14:13:41;101224.01;;;6.99;76.79
40692;BME280;26377;53.344;14.886;2022-12-20T14:16:15;101216.53;;;6.99;76.74
40692;BME280;26377;53.344;14.886;2022-12-20T14:18:41;101222.29;;;6.98;76.74
40692;BME280;26377;53.344;14.886;2022-12-20T14:21:10;101226.69;;;6.98;76.72
40692;BME280;26377;53.344;14.886;2022-12-20T14:23:47;101226.28;;;6.97;76.69
40692;BME280;26377;53.344;14.886;2022-12-20T14:26:18;101223.20;;;6.97;76.66
40692;BME280;26377;53.344;14.886;2022-12-20T14:28:58;101207.02;;;6.95;76.65
40692;BME280;26377;53.344;14.886;2022-12-20T14:31:32;101204.82;;;6.94;76.64
40692;BME280;26377;53.344;14.886;2022-12-20T14:36:43;101210.66;;;6.91;76.61
40692;BME280;26377;53.344;14.886;2022-12-20T14:39:32;101212.02;;;6.89;76.59
40692;BME280;26377;53.344;14.886;2022-12-20T14:44:39;101197.10;;;6.88;76.60
40692;BME280;26377;53.344;14.886;2022-12-20T14:47:20;101202.42;;;6.87;76.61
40692;BME280;26377;53.344;14.886;2022-12-20T14:49:51;101190.55;;;6.87;76.59
40692;BME280;26377;53.344;14.886;2022-12-20T14:52:24;101189.67;;;6.86;76.58
40692;BME280;26377;53.344;14.886;2022-12-20T14:55:06;101180.48;;;6.85;76.55
40692;BME280;26377;53.344;14.886;2022-12-20T14:57:56;101187.19;;;6.82;76.55
40692;BME280;26377;53.344;14.886;2022-12-20T15:03:10;101192.46;;;6.82;76.55
40692;BME280;26377;53.344;14.886;2022-12-20T15:05:53;101186.83;;;6.79;76.53
40692;BME280;26377;53.344;14.886;2022-12-20T15:08:25;101180.23;;;6.79;76.51
40692;BME280;26377;53.344;14.886;2022-12-20T15:13:39;101185.23;;;6.74;76.54
40692;BME280;26377;53.344;14.886;2022-12-20T15:16:20;101181.72;;;6.73;76.51
40692;BME280;26377;53.344;14.886;2022-12-20T15:18:49;101175.56;;;6.74;76.49